sensor_id;sensor_type;location;lat;lon;timestamp;temperature;humidity
4518;DHT22;2271;49.464;11.070;2023-12-20T00:01:47;7.30;99.90
4518;DHT22;2271;49.464;11.070;2023-12-20T00:04:12;7.20;99.90
4518;DHT22;2271;49.464;11.070;2023-12-20T00:06:38;7.20;99.90
4518;DHT22;2271;49.464;11.070;2023-12-20T00:09:03;7.20;99.90
4518;DHT22;2271;49.464;11.070;2023-12-20T00:11:29;7.10;99.90
4518;DHT22;2271;49.464;11.070;2023-12-20T00:13:55;7.10;99.90
4518;DHT22;2271;49.464;11.070;2023-12-20T00:16:20;7.10;99.90
4518;DHT22;2271;49.464;11.070;2023-12-20T00:18:46;7.20;99.90
4518;DHT22;2271;49.464;11.070;2023-12-20T00:21:11;7.10;99.90
4518;DHT22;2271;49.464;11.070;2023-12-20T00:23:37;7.20;99.90
4518;DHT22;2271;49.464;11.070;2023-12-20T00:26:03;7.10;99.90
4518;DHT22;2271;49.464;11.070;2023-12-20T00:28:28;7.10;99.90
4518;DHT22;2271;49.464;11.070;2023-12-20T00:30:54;7.10;99.90
4518;DHT22;2271;49.464;11.070;2023-12-20T00:33:19;7.10;99.90
4518;DHT22;2271;49.464;11.070;2023-12-20T00:35:45;7.00;99.90
4518;DHT22;2271;49.464;11.070;2023-12-20T00:38:11;7.00;99.90
4518;DHT22;2271;49.464;11.070;2023-12-20T00:40:37;7.00;99.90
4518;DHT22;2271;49.464;11.070;2023-12-20T00:43:02;7.00;99.90
4518;DHT22;2271;49.464;11.070;2023-12-20T00:45:28;7.00;99.90
4518;DHT22;2271;49.464;11.070;2023-12-20T00:47:54;7.10;99.90
4518;DHT22;2271;49.464;11.070;2023-12-20T00:50:19;7.00;99.90
4518;DHT22;2271;49.464;11.070;2023-12-20T00:52:47;7.00;99.90
4518;DHT22;2271;49.464;11.070;2023-12-20T00:55:13;7.00;99.90
4518;DHT22;2271;49.464;11.070;2023-12-20T00:57:39;7.00;99.90
4518;DHT22;2271;49.464;11.070;2023-12-20T01:00:05;7.00;99.90
4518;DHT22;2271;49.464;11.070;2023-12-20T01:02:31;7.00;99.90
4518;DHT22;2271;49.464;11.070;2023-12-20T01:04:56;7.00;99.90
4518;DHT22;2271;49.464;11.070;2023-12-20T01:07:22;6.90;99.90
4518;DHT22;2271;49.464;11.070;2023-12-20T01:09:48;7.00;99.90
4518;DHT22;2271;49.464;11.070;2023-12-20T01:12:13;7.00;99.90
4518;DHT22;2271;49.464;11.070;2023-12-20T01:14:39;7.00;99.90
4518;DHT22;2271;49.464;11.070;2023-12-20T01:17:05;7.00;99.90
4518;DHT22;2271;49.464;11.070;2023-12-20T01:19:30;7.00;99.90
4518;DHT22;2271;49.464;11.070;2023-12-20T01:21:56;7.00;99.90
4518;DHT22;2271;49.464;11.070;2023-12-20T01:24:22;7.00;99.90
4518;DHT22;2271;49.464;11.070;2023-12-20T01:26:47;7.00;99.90
4518;DHT22;2271;49.464;11.070;2023-12-20T01:29:13;7.00;99.90
4518;DHT22;2271;49.464;11.070;2023-12-20T01:31:39;7.00;99.90
4518;DHT22;2271;49.464;11.070;2023-12-20T01:34:06;7.00;99.90
4518;DHT22;2271;49.464;11.070;2023-12-20T01:36:31;6.90;99.90
4518;DHT22;2271;49.464;11.070;2023-12-20T01:38:58;6.90;99.90
4518;DHT22;2271;49.464;11.070;2023-12-20T01:41:24;6.90;99.90
4518;DHT22;2271;49.464;11.070;2023-12-20T01:43:51;6.90;99.90
4518;DHT22;2271;49.464;11.070;2023-12-20T01:46:19;6.90;99.90
4518;DHT22;2271;49.464;11.070;2023-12-20T01:48:45;6.90;99.90
4518;DHT22;2271;49.464;11.070;2023-12-20T01:51:12;6.90;99.90
4518;DHT22;2271;49.464;11.070;2023-12-20T01:53:39;6.90;99.90
4518;DHT22;2271;49.464;11.070;2023-12-20T01:56:06;6.90;99.90
4518;DHT22;2271;49.464;11.070;2023-12-20T01:58:32;6.90;99.90
4518;DHT22;2271;49.464;11.070;2023-12-20T02:00:58;6.80;99.90
4518;DHT22;2271;49.464;11.070;2023-12-20T02:03:24;6.90;99.90
4518;DHT22;2271;49.464;11.070;2023-12-20T02:05:50;6.90;99.90
4518;DHT22;2271;49.464;11.070;2023-12-20T02:08:16;6.90;99.90
4518;DHT22;2271;49.464;11.070;2023-12-20T02:10:41;6.90;99.90
4518;DHT22;2271;49.464;11.070;2023-12-20T02:13:07;6.80;99.90
4518;DHT22;2271;49.464;11.070;2023-12-20T02:15:33;6.80;99.90
4518;DHT22;2271;49.464;11.070;2023-12-20T02:17:59;6.90;99.90
4518;DHT22;2271;49.464;11.070;2023-12-20T02:20:24;6.80;99.90
4518;DHT22;2271;49.464;11.070;2023-12-20T02:22:50;6.80;99.90
4518;DHT22;2271;49.464;11.070;2023-12-20T02:25:15;6.80;99.90
4518;DHT22;2271;49.464;11.070;2023-12-20T02:27:41;6.80;99.90
4518;DHT22;2271;49.464;11.070;2023-12-20T02:30:07;6.80;99.90
4518;DHT22;2271;49.464;11.070;2023-12-20T02:32:33;6.80;99.90
4518;DHT22;2271;49.464;11.070;2023-12-20T02:34:59;6.80;99.90
4518;DHT22;2271;49.464;11.070;2023-12-20T02:37:25;6.70;99.90
4518;DHT22;2271;49.464;11.070;2023-12-20T02:39:50;6.70;99.90
4518;DHT22;2271;49.464;11.070;2023-12-20T02:42:16;6.70;99.90
4518;DHT22;2271;49.464;11.070;2023-12-20T02:44:41;6.70;99.90
4518;DHT22;2271;49.464;11.070;2023-12-20T02:47:07;6.70;99.90
4518;DHT22;2271;49.464;11.070;2023-12-20T02:49:32;6.60;99.90
4518;DHT22;2271;49.464;11.070;2023-12-20T02:51:58;6.60;99.90
4518;DHT22;2271;49.464;11.070;2023-12-20T02:54:23;6.60;99.90
4518;DHT22;2271;49.464;11.070;2023-12-20T02:56:49;6.50;99.90
4518;DHT22;2271;49.464;11.070;2023-12-20T02:59:15;6.50;99.90
4518;DHT22;2271;49.464;11.070;2023-12-20T03:01:45;6.50;99.90
4518;DHT22;2271;49.464;11.070;2023-12-20T03:04:11;6.40;99.90
4518;DHT22;2271;49.464;11.070;2023-12-20T03:06:37;6.40;99.90
4518;DHT22;2271;49.464;11.070;2023-12-20T03:09:03;6.50;99.90
4518;DHT22;2271;49.464;11.070;2023-12-20T03:11:28;6.50;99.90
4518;DHT22;2271;49.464;11.070;2023-12-20T03:13:55;6.50;99.90
4518;DHT22;2271;49.464;11.070;2023-12-20T03:16:20;6.50;99.90
4518;DHT22;2271;49.464;11.070;2023-12-20T03:18:46;6.50;99.90
4518;DHT22;2271;49.464;11.070;2023-12-20T03:21:11;6.40;99.90
4518;DHT22;2271;49.464;11.070;2023-12-20T03:23:37;6.40;99.90
4518;DHT22;2271;49.464;11.070;2023-12-20T03:26:03;6.40;99.90
4518;DHT22;2271;49.464;11.070;2023-12-20T03:28:29;6.50;99.90
4518;DHT22;2271;49.464;11.070;2023-12-20T03:30:55;6.30;99.90
4518;DHT22;2271;49.464;11.070;2023-12-20T03:33:21;6.40;99.90
4518;DHT22;2271;49.464;11.070;2023-12-20T03:35:46;6.40;99.90
4518;DHT22;2271;49.464;11.070;2023-12-20T03:38:12;6.40;99.90
4518;DHT22;2271;49.464;11.070;2023-12-20T03:40:38;6.40;99.90
4518;DHT22;2271;49.464;11.070;2023-12-20T03:43:03;6.40;99.90
4518;DHT22;2271;49.464;11.070;2023-12-20T03:45:29;6.40;99.90
4518;DHT22;2271;49.464;11.070;2023-12-20T03:47:54;6.40;99.90
4518;DHT22;2271;49.464;11.070;2023-12-20T03:50:25;6.40;99.90
4518;DHT22;2271;49.464;11.070;2023-12-20T03:52:51;6.40;99.90
4518;DHT22;2271;49.464;11.070;2023-12-20T03:55:16;6.40;99.90
4518;DHT22;2271;49.464;11.070;2023-12-20T03:57:42;6.40;99.90
4518;DHT22;2271;49.464;11.070;2023-12-20T04:00:08;6.40;99.90
4518;DHT22;2271;49.464;11.070;2023-12-20T04:02:40;6.40;99.90
4518;DHT22;2271;49.464;11.070;2023-12-20T04:05:07;6.40;99.90
4518;DHT22;2271;49.464;11.070;2023-12-20T04:07:33;6.40;99.90
4518;DHT22;2271;49.464;11.070;2023-12-20T04:09:59;6.30;99.90
4518;DHT22;2271;49.464;11.070;2023-12-20T04:12:26;6.40;99.90
4518;DHT22;2271;49.464;11.070;2023-12-20T04:14:51;6.30;99.90
4518;DHT22;2271;49.464;11.070;2023-12-20T04:17:17;6.30;99.90
4518;DHT22;2271;49.464;11.070;2023-12-20T04:19:43;6.40;99.90
4518;DHT22;2271;49.464;11.070;2023-12-20T04:22:09;6.30;99.90
4518;DHT22;2271;49.464;11.070;2023-12-20T04:24:34;6.30;99.90
4518;DHT22;2271;49.464;11.070;2023-12-20T04:27:01;6.30;99.90
4518;DHT22;2271;49.464;11.070;2023-12-20T04:29:26;6.20;99.90
4518;DHT22;2271;49.464;11.070;2023-12-20T04:31:52;6.10;99.90
4518;DHT22;2271;49.464;11.070;2023-12-20T04:34:18;6.20;99.90
4518;DHT22;2271;49.464;11.070;2023-12-20T04:36:44;6.20;99.90
4518;DHT22;2271;49.464;11.070;2023-12-20T04:39:11;6.20;99.90
4518;DHT22;2271;49.464;11.070;2023-12-20T04:41:36;6.20;99.90
4518;DHT22;2271;49.464;11.070;2023-12-20T04:44:02;6.20;99.90
4518;DHT22;2271;49.464;11.070;2023-12-20T04:46:29;6.20;99.90
4518;DHT22;2271;49.464;11.070;2023-12-20T04:48:56;6.10;99.90
4518;DHT22;2271;49.464;11.070;2023-12-20T04:51:21;6.10;99.90
4518;DHT22;2271;49.464;11.070;2023-12-20T04:53:47;6.10;99.90
4518;DHT22;2271;49.464;11.070;2023-12-20T04:56:13;6.20;99.90
4518;DHT22;2271;49.464;11.070;2023-12-20T04:58:38;6.20;99.90
4518;DHT22;2271;49.464;11.070;2023-12-20T05:01:05;6.20;99.90
4518;DHT22;2271;49.464;11.070;2023-12-20T05:03:31;6.20;99.90
4518;DHT22;2271;49.464;11.070;2023-12-20T05:05:57;6.10;99.90
4518;DHT22;2271;49.464;11.070;2023-12-20T05:08:22;6.20;99.90
4518;DHT22;2271;49.464;11.070;2023-12-20T05:10:48;6.20;99.90
4518;DHT22;2271;49.464;11.070;2023-12-20T05:13:14;6.10;99.90
4518;DHT22;2271;49.464;11.070;2023-12-20T05:15:39;6.10;99.90
4518;DHT22;2271;49.464;11.070;2023-12-20T05:18:05;6.20;99.90
4518;DHT22;2271;49.464;11.070;2023-12-20T05:20:31;6.10;99.90
4518;DHT22;2271;49.464;11.070;2023-12-20T05:22:56;6.10;99.90
4518;DHT22;2271;49.464;11.070;2023-12-20T05:25:22;6.10;99.90
4518;DHT22;2271;49.464;11.070;2023-12-20T05:27:48;6.10;99.90
4518;DHT22;2271;49.464;11.070;2023-12-20T05:30:13;6.10;99.90
4518;DHT22;2271;49.464;11.070;2023-12-20T05:32:39;6.20;99.90
4518;DHT22;2271;49.464;11.070;2023-12-20T05:35:05;6.20;99.90
4518;DHT22;2271;49.464;11.070;2023-12-20T05:37:30;6.20;99.90
4518;DHT22;2271;49.464;11.070;2023-12-20T05:39:56;6.20;99.90
4518;DHT22;2271;49.464;11.070;2023-12-20T05:42:21;6.20;99.90
4518;DHT22;2271;49.464;11.070;2023-12-20T05:44:47;6.20;99.90
4518;DHT22;2271;49.464;11.070;2023-12-20T05:47:13;6.20;99.90
4518;DHT22;2271;49.464;11.070;2023-12-20T05:49:38;6.20;99.90
4518;DHT22;2271;49.464;11.070;2023-12-20T05:52:04;6.30;99.90
4518;DHT22;2271;49.464;11.070;2023-12-20T05:54:30;6.30;99.90
4518;DHT22;2271;49.464;11.070;2023-12-20T05:56:56;6.30;99.90
4518;DHT22;2271;49.464;11.070;2023-12-20T05:59:21;6.40;99.90
4518;DHT22;2271;49.464;11.070;2023-12-20T06:01:47;6.40;99.90
4518;DHT22;2271;49.464;11.070;2023-12-20T06:04:12;6.40;99.90
4518;DHT22;2271;49.464;11.070;2023-12-20T06:06:42;6.50;99.90
4518;DHT22;2271;49.464;11.070;2023-12-20T06:09:08;6.40;99.90
4518;DHT22;2271;49.464;11.070;2023-12-20T06:11:33;6.40;99.90
4518;DHT22;2271;49.464;11.070;2023-12-20T06:13:59;6.40;99.90
4518;DHT22;2271;49.464;11.070;2023-12-20T06:16:25;6.40;99.90
4518;DHT22;2271;49.464;11.070;2023-12-20T06:18:50;6.40;99.90
4518;DHT22;2271;49.464;11.070;2023-12-20T06:21:16;6.40;99.90
4518;DHT22;2271;49.464;11.070;2023-12-20T06:23:42;6.40;99.90
4518;DHT22;2271;49.464;11.070;2023-12-20T06:26:07;6.40;99.90
4518;DHT22;2271;49.464;11.070;2023-12-20T06:28:33;6.40;99.90
4518;DHT22;2271;49.464;11.070;2023-12-20T06:30:59;6.40;99.90
4518;DHT22;2271;49.464;11.070;2023-12-20T06:33:26;6.40;99.90
4518;DHT22;2271;49.464;11.070;2023-12-20T06:35:51;6.40;99.90
4518;DHT22;2271;49.464;11.070;2023-12-20T06:38:18;6.30;99.90
4518;DHT22;2271;49.464;11.070;2023-12-20T06:40:44;6.30;99.90
4518;DHT22;2271;49.464;11.070;2023-12-20T06:43:11;6.30;99.90
4518;DHT22;2271;49.464;11.070;2023-12-20T06:45:37;6.40;99.90
4518;DHT22;2271;49.464;11.070;2023-12-20T06:48:03;6.40;99.90
4518;DHT22;2271;49.464;11.070;2023-12-20T06:50:28;6.40;99.90
4518;DHT22;2271;49.464;11.070;2023-12-20T06:52:54;6.40;99.90
4518;DHT22;2271;49.464;11.070;2023-12-20T06:55:20;6.30;99.90
4518;DHT22;2271;49.464;11.070;2023-12-20T06:57:45;6.40;99.90
4518;DHT22;2271;49.464;11.070;2023-12-20T07:00:11;6.40;99.90
4518;DHT22;2271;49.464;11.070;2023-12-20T07:02:37;6.40;99.90
4518;DHT22;2271;49.464;11.070;2023-12-20T07:05:03;6.40;99.90
4518;DHT22;2271;49.464;11.070;2023-12-20T07:07:29;6.40;99.90
4518;DHT22;2271;49.464;11.070;2023-12-20T07:09:55;6.40;99.90
4518;DHT22;2271;49.464;11.070;2023-12-20T07:12:21;6.40;99.90
4518;DHT22;2271;49.464;11.070;2023-12-20T07:14:47;6.40;99.90
4518;DHT22;2271;49.464;11.070;2023-12-20T07:17:12;6.50;99.90
4518;DHT22;2271;49.464;11.070;2023-12-20T07:19:40;6.50;99.90
4518;DHT22;2271;49.464;11.070;2023-12-20T07:22:06;6.40;99.90
4518;DHT22;2271;49.464;11.070;2023-12-20T07:24:32;6.40;99.90
4518;DHT22;2271;49.464;11.070;2023-12-20T07:27:02;6.50;99.90
4518;DHT22;2271;49.464;11.070;2023-12-20T07:29:28;6.50;99.90
4518;DHT22;2271;49.464;11.070;2023-12-20T07:31:53;6.50;99.90
4518;DHT22;2271;49.464;11.070;2023-12-20T07:34:22;6.50;99.90
4518;DHT22;2271;49.464;11.070;2023-12-20T07:36:47;6.50;99.90
4518;DHT22;2271;49.464;11.070;2023-12-20T07:39:14;6.50;99.90
4518;DHT22;2271;49.464;11.070;2023-12-20T07:41:39;6.50;99.90
4518;DHT22;2271;49.464;11.070;2023-12-20T07:44:06;6.40;99.90
4518;DHT22;2271;49.464;11.070;2023-12-20T07:46:32;6.40;99.90
4518;DHT22;2271;49.464;11.070;2023-12-20T07:48:57;6.50;99.90
4518;DHT22;2271;49.464;11.070;2023-12-20T07:51:23;6.50;99.90
4518;DHT22;2271;49.464;11.070;2023-12-20T07:53:49;6.40;99.90
4518;DHT22;2271;49.464;11.070;2023-12-20T07:56:18;6.40;99.90
4518;DHT22;2271;49.464;11.070;2023-12-20T07:58:45;6.50;99.90
4518;DHT22;2271;49.464;11.070;2023-12-20T08:01:11;6.50;99.90
4518;DHT22;2271;49.464;11.070;2023-12-20T08:03:38;6.50;99.90
4518;DHT22;2271;49.464;11.070;2023-12-20T08:06:04;6.50;99.90
4518;DHT22;2271;49.464;11.070;2023-12-20T08:08:29;6.50;99.90
4518;DHT22;2271;49.464;11.070;2023-12-20T08:10:55;6.50;99.90
4518;DHT22;2271;49.464;11.070;2023-12-20T08:13:23;6.60;99.90
4518;DHT22;2271;49.464;11.070;2023-12-20T08:15:51;6.50;99.90
4518;DHT22;2271;49.464;11.070;2023-12-20T08:18:17;6.50;99.90
4518;DHT22;2271;49.464;11.070;2023-12-20T08:20:42;6.60;99.90
4518;DHT22;2271;49.464;11.070;2023-12-20T08:23:08;6.60;99.90
4518;DHT22;2271;49.464;11.070;2023-12-20T08:25:34;6.60;99.90
4518;DHT22;2271;49.464;11.070;2023-12-20T08:27:59;6.60;99.90
4518;DHT22;2271;49.464;11.070;2023-12-20T08:30:26;6.60;99.90
4518;DHT22;2271;49.464;11.070;2023-12-20T08:32:52;6.70;99.90
4518;DHT22;2271;49.464;11.070;2023-12-20T08:35:17;6.70;99.90
4518;DHT22;2271;49.464;11.070;2023-12-20T08:37:44;6.60;99.90
4518;DHT22;2271;49.464;11.070;2023-12-20T08:40:10;6.60;99.90
4518;DHT22;2271;49.464;11.070;2023-12-20T08:42:35;6.60;99.90
4518;DHT22;2271;49.464;11.070;2023-12-20T08:45:01;6.60;99.90
4518;DHT22;2271;49.464;11.070;2023-12-20T08:47:29;6.60;99.90
4518;DHT22;2271;49.464;11.070;2023-12-20T08:49:55;6.60;99.90
4518;DHT22;2271;49.464;11.070;2023-12-20T08:52:24;6.60;99.90
4518;DHT22;2271;49.464;11.070;2023-12-20T08:54:52;6.60;99.90
4518;DHT22;2271;49.464;11.070;2023-12-20T08:57:20;6.60;99.90
4518;DHT22;2271;49.464;11.070;2023-12-20T08:59:47;6.70;99.90
4518;DHT22;2271;49.464;11.070;2023-12-20T09:02:13;6.60;99.90
4518;DHT22;2271;49.464;11.070;2023-12-20T09:04:39;6.60;99.90
4518;DHT22;2271;49.464;11.070;2023-12-20T09:07:04;6.60;99.90
4518;DHT22;2271;49.464;11.070;2023-12-20T09:09:30;6.50;99.90
4518;DHT22;2271;49.464;11.070;2023-12-20T09:11:57;6.50;99.90
4518;DHT22;2271;49.464;11.070;2023-12-20T09:14:23;6.50;99.90
4518;DHT22;2271;49.464;11.070;2023-12-20T09:16:49;6.60;99.90
4518;DHT22;2271;49.464;11.070;2023-12-20T09:19:16;6.60;99.90
4518;DHT22;2271;49.464;11.070;2023-12-20T09:21:42;6.70;99.90
4518;DHT22;2271;49.464;11.070;2023-12-20T09:24:08;6.70;99.90
4518;DHT22;2271;49.464;11.070;2023-12-20T09:26:34;6.60;99.90
4518;DHT22;2271;49.464;11.070;2023-12-20T09:29:00;6.60;99.90
4518;DHT22;2271;49.464;11.070;2023-12-20T09:31:25;6.70;99.90
4518;DHT22;2271;49.464;11.070;2023-12-20T09:33:51;6.70;99.90
4518;DHT22;2271;49.464;11.070;2023-12-20T09:36:16;6.70;99.90
4518;DHT22;2271;49.464;11.070;2023-12-20T09:38:42;6.70;99.90
4518;DHT22;2271;49.464;11.070;2023-12-20T09:41:08;6.70;99.90
4518;DHT22;2271;49.464;11.070;2023-12-20T09:43:37;6.70;99.90
4518;DHT22;2271;49.464;11.070;2023-12-20T09:46:06;6.70;99.90
4518;DHT22;2271;49.464;11.070;2023-12-20T09:48:33;6.60;99.90
4518;DHT22;2271;49.464;11.070;2023-12-20T09:50:59;6.70;99.90
4518;DHT22;2271;49.464;11.070;2023-12-20T09:53:25;6.70;99.90
4518;DHT22;2271;49.464;11.070;2023-12-20T09:55:58;6.70;99.90
4518;DHT22;2271;49.464;11.070;2023-12-20T09:58:25;6.70;99.90
4518;DHT22;2271;49.464;11.070;2023-12-20T10:00:51;6.80;99.90
4518;DHT22;2271;49.464;11.070;2023-12-20T10:03:23;6.90;99.90
4518;DHT22;2271;49.464;11.070;2023-12-20T10:05:54;6.90;99.90
4518;DHT22;2271;49.464;11.070;2023-12-20T10:08:21;6.80;99.90
4518;DHT22;2271;49.464;11.070;2023-12-20T10:10:47;6.90;99.90
4518;DHT22;2271;49.464;11.070;2023-12-20T10:13:13;6.90;99.90
4518;DHT22;2271;49.464;11.070;2023-12-20T10:15:39;6.90;99.90
4518;DHT22;2271;49.464;11.070;2023-12-20T10:18:06;7.00;99.90
4518;DHT22;2271;49.464;11.070;2023-12-20T10:20:32;7.00;99.90
4518;DHT22;2271;49.464;11.070;2023-12-20T10:22:59;7.20;99.90
4518;DHT22;2271;49.464;11.070;2023-12-20T10:25:25;7.20;99.90
4518;DHT22;2271;49.464;11.070;2023-12-20T10:28:11;7.20;99.90
4518;DHT22;2271;49.464;11.070;2023-12-20T10:30:38;7.30;99.90
4518;DHT22;2271;49.464;11.070;2023-12-20T10:33:06;7.30;99.90
4518;DHT22;2271;49.464;11.070;2023-12-20T10:35:32;7.30;99.90
4518;DHT22;2271;49.464;11.070;2023-12-20T10:37:59;8.90;99.90
4518;DHT22;2271;49.464;11.070;2023-12-20T10:40:29;10.70;99.90
4518;DHT22;2271;49.464;11.070;2023-12-20T10:42:56;10.80;99.90
4518;DHT22;2271;49.464;11.070;2023-12-20T10:45:22;9.90;99.90
4518;DHT22;2271;49.464;11.070;2023-12-20T10:47:50;9.20;99.90
4518;DHT22;2271;49.464;11.070;2023-12-20T10:50:16;8.50;99.90
4518;DHT22;2271;49.464;11.070;2023-12-20T10:52:42;8.20;99.90
4518;DHT22;2271;49.464;11.070;2023-12-20T10:55:10;7.80;99.90
4518;DHT22;2271;49.464;11.070;2023-12-20T10:57:36;7.70;99.90
4518;DHT22;2271;49.464;11.070;2023-12-20T11:00:03;7.40;99.90
4518;DHT22;2271;49.464;11.070;2023-12-20T11:02:32;7.20;99.90
4518;DHT22;2271;49.464;11.070;2023-12-20T11:05:38;7.10;99.90
4518;DHT22;2271;49.464;11.070;2023-12-20T11:08:26;7.10;99.90
4518;DHT22;2271;49.464;11.070;2023-12-20T11:10:59;7.10;99.90
4518;DHT22;2271;49.464;11.070;2023-12-20T11:13:36;7.10;99.90
4518;DHT22;2271;49.464;11.070;2023-12-20T11:16:03;7.10;99.90
4518;DHT22;2271;49.464;11.070;2023-12-20T11:18:30;7.20;99.90
4518;DHT22;2271;49.464;11.070;2023-12-20T11:21:06;7.30;99.90
4518;DHT22;2271;49.464;11.070;2023-12-20T11:23:32;7.30;99.90
4518;DHT22;2271;49.464;11.070;2023-12-20T11:25:59;7.40;99.90
4518;DHT22;2271;49.464;11.070;2023-12-20T11:28:27;7.30;99.90
4518;DHT22;2271;49.464;11.070;2023-12-20T11:30:57;7.30;99.90
4518;DHT22;2271;49.464;11.070;2023-12-20T11:33:36;7.20;99.90
4518;DHT22;2271;49.464;11.070;2023-12-20T11:36:02;7.10;99.90
4518;DHT22;2271;49.464;11.070;2023-12-20T11:38:37;7.10;99.90
4518;DHT22;2271;49.464;11.070;2023-12-20T11:41:05;7.10;99.90
4518;DHT22;2271;49.464;11.070;2023-12-20T11:43:32;7.10;99.90
4518;DHT22;2271;49.464;11.070;2023-12-20T11:46:07;7.20;99.90
4518;DHT22;2271;49.464;11.070;2023-12-20T11:48:39;7.20;99.90
4518;DHT22;2271;49.464;11.070;2023-12-20T11:51:12;7.30;99.90
4518;DHT22;2271;49.464;11.070;2023-12-20T11:53:38;7.30;99.90
4518;DHT22;2271;49.464;11.070;2023-12-20T11:56:07;7.30;99.90
4518;DHT22;2271;49.464;11.070;2023-12-20T11:58:33;7.30;99.90
4518;DHT22;2271;49.464;11.070;2023-12-20T12:00:59;7.30;99.90
4518;DHT22;2271;49.464;11.070;2023-12-20T12:03:25;7.20;99.90
4518;DHT22;2271;49.464;11.070;2023-12-20T12:05:51;7.20;99.90
4518;DHT22;2271;49.464;11.070;2023-12-20T12:08:17;7.10;99.90
4518;DHT22;2271;49.464;11.070;2023-12-20T12:10:46;7.10;99.90
4518;DHT22;2271;49.464;11.070;2023-12-20T12:13:12;7.10;99.90
4518;DHT22;2271;49.464;11.070;2023-12-20T12:15:39;7.10;99.90
4518;DHT22;2271;49.464;11.070;2023-12-20T12:18:05;7.10;99.90
4518;DHT22;2271;49.464;11.070;2023-12-20T12:20:31;7.10;99.90
4518;DHT22;2271;49.464;11.070;2023-12-20T12:23:05;7.10;99.90
4518;DHT22;2271;49.464;11.070;2023-12-20T12:25:34;7.20;99.90
4518;DHT22;2271;49.464;11.070;2023-12-20T12:28:01;7.20;99.90
4518;DHT22;2271;49.464;11.070;2023-12-20T12:30:27;7.20;99.90
4518;DHT22;2271;49.464;11.070;2023-12-20T12:32:53;7.20;99.90
4518;DHT22;2271;49.464;11.070;2023-12-20T12:35:20;7.30;99.90
4518;DHT22;2271;49.464;11.070;2023-12-20T12:37:46;7.40;99.90
4518;DHT22;2271;49.464;11.070;2023-12-20T12:40:13;7.40;99.90
4518;DHT22;2271;49.464;11.070;2023-12-20T12:42:40;7.40;99.90
4518;DHT22;2271;49.464;11.070;2023-12-20T12:45:07;7.30;99.90
4518;DHT22;2271;49.464;11.070;2023-12-20T12:47:36;7.30;99.90
4518;DHT22;2271;49.464;11.070;2023-12-20T12:50:02;7.40;99.90
4518;DHT22;2271;49.464;11.070;2023-12-20T12:52:27;7.30;99.90
4518;DHT22;2271;49.464;11.070;2023-12-20T12:54:53;7.30;99.90
4518;DHT22;2271;49.464;11.070;2023-12-20T12:57:19;7.40;99.90
4518;DHT22;2271;49.464;11.070;2023-12-20T12:59:46;7.40;99.90
4518;DHT22;2271;49.464;11.070;2023-12-20T13:02:13;7.40;99.90
4518;DHT22;2271;49.464;11.070;2023-12-20T13:04:40;7.30;99.90
4518;DHT22;2271;49.464;11.070;2023-12-20T13:07:06;7.40;99.90
4518;DHT22;2271;49.464;11.070;2023-12-20T13:09:32;7.40;99.90
4518;DHT22;2271;49.464;11.070;2023-12-20T13:11:57;7.40;99.90
4518;DHT22;2271;49.464;11.070;2023-12-20T13:14:24;7.40;99.90
4518;DHT22;2271;49.464;11.070;2023-12-20T13:16:51;7.50;99.90
4518;DHT22;2271;49.464;11.070;2023-12-20T13:19:17;7.50;99.90
4518;DHT22;2271;49.464;11.070;2023-12-20T13:21:42;7.40;99.90
4518;DHT22;2271;49.464;11.070;2023-12-20T13:24:08;7.30;99.90
4518;DHT22;2271;49.464;11.070;2023-12-20T13:26:33;7.40;99.90
4518;DHT22;2271;49.464;11.070;2023-12-20T13:28:59;7.30;99.90
4518;DHT22;2271;49.464;11.070;2023-12-20T13:31:25;7.20;99.90
4518;DHT22;2271;49.464;11.070;2023-12-20T13:33:50;7.20;99.90
4518;DHT22;2271;49.464;11.070;2023-12-20T13:36:17;7.20;99.90
4518;DHT22;2271;49.464;11.070;2023-12-20T13:38:43;7.10;99.90
4518;DHT22;2271;49.464;11.070;2023-12-20T13:41:09;7.20;99.90
4518;DHT22;2271;49.464;11.070;2023-12-20T13:43:34;7.20;99.90
4518;DHT22;2271;49.464;11.070;2023-12-20T13:46:00;7.20;99.90
4518;DHT22;2271;49.464;11.070;2023-12-20T13:48:26;7.20;99.90
4518;DHT22;2271;49.464;11.070;2023-12-20T13:50:52;7.20;99.90
4518;DHT22;2271;49.464;11.070;2023-12-20T13:53:17;7.30;99.90
4518;DHT22;2271;49.464;11.070;2023-12-20T13:55:43;7.30;99.90
4518;DHT22;2271;49.464;11.070;2023-12-20T13:58:09;7.20;99.90
4518;DHT22;2271;49.464;11.070;2023-12-20T14:00:36;7.20;99.90
4518;DHT22;2271;49.464;11.070;2023-12-20T14:03:03;7.10;99.90
4518;DHT22;2271;49.464;11.070;2023-12-20T14:05:28;7.10;99.90
4518;DHT22;2271;49.464;11.070;2023-12-20T14:07:55;7.10;99.90
4518;DHT22;2271;49.464;11.070;2023-12-20T14:10:23;7.10;99.90
4518;DHT22;2271;49.464;11.070;2023-12-20T14:12:48;7.10;99.90
4518;DHT22;2271;49.464;11.070;2023-12-20T14:15:14;7.10;99.90
4518;DHT22;2271;49.464;11.070;2023-12-20T14:17:41;7.00;99.90
4518;DHT22;2271;49.464;11.070;2023-12-20T14:20:08;7.00;99.90
4518;DHT22;2271;49.464;11.070;2023-12-20T14:22:35;7.00;99.90
4518;DHT22;2271;49.464;11.070;2023-12-20T14:25:01;7.10;99.90
4518;DHT22;2271;49.464;11.070;2023-12-20T14:27:27;7.10;99.90
4518;DHT22;2271;49.464;11.070;2023-12-20T14:29:56;7.10;99.90
4518;DHT22;2271;49.464;11.070;2023-12-20T14:32:21;7.10;99.90
4518;DHT22;2271;49.464;11.070;2023-12-20T14:34:47;7.10;99.90
4518;DHT22;2271;49.464;11.070;2023-12-20T14:37:13;7.10;99.90
4518;DHT22;2271;49.464;11.070;2023-12-20T14:39:39;7.10;99.90
4518;DHT22;2271;49.464;11.070;2023-12-20T14:42:07;7.10;99.90
4518;DHT22;2271;49.464;11.070;2023-12-20T14:44:37;7.60;99.90
4518;DHT22;2271;49.464;11.070;2023-12-20T14:47:03;7.90;99.90
4518;DHT22;2271;49.464;11.070;2023-12-20T14:49:30;7.80;99.90
4518;DHT22;2271;49.464;11.070;2023-12-20T14:51:55;7.60;99.90
4518;DHT22;2271;49.464;11.070;2023-12-20T14:54:21;7.50;99.90
4518;DHT22;2271;49.464;11.070;2023-12-20T14:56:47;7.30;99.90
4518;DHT22;2271;49.464;11.070;2023-12-20T14:59:13;7.20;99.90
4518;DHT22;2271;49.464;11.070;2023-12-20T15:01:39;7.20;99.90
4518;DHT22;2271;49.464;11.070;2023-12-20T15:04:06;7.20;99.90
4518;DHT22;2271;49.464;11.070;2023-12-20T15:06:32;7.20;99.90
4518;DHT22;2271;49.464;11.070;2023-12-20T15:08:58;7.10;99.90
4518;DHT22;2271;49.464;11.070;2023-12-20T15:11:24;7.20;99.90
4518;DHT22;2271;49.464;11.070;2023-12-20T15:13:49;7.20;99.90
4518;DHT22;2271;49.464;11.070;2023-12-20T15:16:24;7.10;99.90
4518;DHT22;2271;49.464;11.070;2023-12-20T15:18:51;7.10;99.90
4518;DHT22;2271;49.464;11.070;2023-12-20T15:21:17;7.00;99.90
4518;DHT22;2271;49.464;11.070;2023-12-20T15:23:43;6.90;99.90
4518;DHT22;2271;49.464;11.070;2023-12-20T15:26:18;7.00;99.90
4518;DHT22;2271;49.464;11.070;2023-12-20T15:28:44;7.00;99.90
4518;DHT22;2271;49.464;11.070;2023-12-20T15:31:10;7.00;99.90
4518;DHT22;2271;49.464;11.070;2023-12-20T15:33:35;6.90;99.90
4518;DHT22;2271;49.464;11.070;2023-12-20T15:36:01;6.90;99.90
4518;DHT22;2271;49.464;11.070;2023-12-20T15:38:27;7.00;99.90
4518;DHT22;2271;49.464;11.070;2023-12-20T15:40:52;7.00;99.90
4518;DHT22;2271;49.464;11.070;2023-12-20T15:43:18;7.00;99.90
4518;DHT22;2271;49.464;11.070;2023-12-20T15:45:43;7.00;99.90
4518;DHT22;2271;49.464;11.070;2023-12-20T15:48:11;7.00;99.90
4518;DHT22;2271;49.464;11.070;2023-12-20T15:50:43;7.00;99.90
4518;DHT22;2271;49.464;11.070;2023-12-20T15:53:09;7.00;99.90
4518;DHT22;2271;49.464;11.070;2023-12-20T15:55:34;7.00;99.90
4518;DHT22;2271;49.464;11.070;2023-12-20T15:58:00;7.10;99.90